createdAt,value
2019-03-05T00:00:46.294Z,1.30
2019-03-05T00:03:15.087Z,1.17
2019-03-05T00:05:43.773Z,1.65
2019-03-05T00:08:12.696Z,1.10
2019-03-05T00:10:41.736Z,0.90
2019-03-05T00:13:10.652Z,1.10
2019-03-05T00:15:39.344Z,1.00
2019-03-05T00:18:08.499Z,1.17
2019-03-05T00:20:37.302Z,1.02
2019-03-05T00:23:08.252Z,1.07
2019-03-05T00:25:38.143Z,0.80
2019-03-05T00:28:37.429Z,0.90
2019-03-05T00:31:12.346Z,1.22
2019-03-05T00:33:52.794Z,0.98
2019-03-05T00:36:30.710Z,0.85
2019-03-05T00:39:20.753Z,0.98
2019-03-05T00:42:04.192Z,1.20
2019-03-05T00:44:41.756Z,1.10
2019-03-05T00:47:30.597Z,1.15
2019-03-05T00:50:26.878Z,1.22
2019-03-05T00:53:04.439Z,1.10
2019-03-05T00:56:02.280Z,1.37
2019-03-05T00:58:39.844Z,1.20
2019-03-05T01:01:17.286Z,1.27
2019-03-05T01:04:05.777Z,1.05
2019-03-05T01:06:34.568Z,1.30
2019-03-05T01:09:03.011Z,1.27
2019-03-05T01:11:32.052Z,1.00
2019-03-05T01:14:01.093Z,1.10
2019-03-05T01:16:31.695Z,1.15
2019-03-05T01:19:00.619Z,0.88
2019-03-05T01:21:29.058Z,1.20
2019-03-05T01:23:57.629Z,1.10
2019-03-05T01:26:26.429Z,0.90
2019-03-05T01:28:55.229Z,0.90
2019-03-05T01:31:42.144Z,1.37
2019-03-05T01:34:15.266Z,1.02
2019-03-05T01:36:51.627Z,0.90
2019-03-05T01:39:33.871Z,1.37
2019-03-05T01:42:03.032Z,1.80
2019-03-05T01:44:32.076Z,1.22
2019-03-05T01:47:00.520Z,1.20
2019-03-05T01:49:29.199Z,0.80
2019-03-05T01:51:57.997Z,1.17
2019-03-05T01:54:26.918Z,0.98
2019-03-05T01:56:55.961Z,1.10
2019-03-05T01:59:25.008Z,1.00
2019-03-05T02:01:54.046Z,1.07
2019-03-05T02:04:22.968Z,1.32
2019-03-05T02:06:51.768Z,1.67
2019-03-05T02:09:20.332Z,1.25
2019-03-05T02:11:49.251Z,1.45
2019-03-05T02:14:17.693Z,1.40
2019-03-05T02:16:46.376Z,1.15
2019-03-05T02:19:34.390Z,1.15
2019-03-05T02:22:02.817Z,0.85
2019-03-05T02:24:51.302Z,1.25
2019-03-05T02:27:42.665Z,1.32
2019-03-05T02:30:47.832Z,1.27
2019-03-05T02:33:36.190Z,1.15
2019-03-05T02:36:17.471Z,1.00
2019-03-05T02:39:10.398Z,1.80
2019-03-05T02:42:01.999Z,1.30
2019-03-05T02:44:36.849Z,1.10
2019-03-05T02:47:17.355Z,1.27
2019-03-05T02:50:07.040Z,1.07
2019-03-05T02:52:44.608Z,1.50
2019-03-05T02:55:32.966Z,1.75
2019-03-05T02:58:00.806Z,1.40
2019-03-05T03:00:42.815Z,1.12
2019-03-05T03:03:13.162Z,1.37
2019-03-05T03:05:43.412Z,1.35
2019-03-05T03:08:12.090Z,1.72
2019-03-05T03:10:41.377Z,1.37
2019-03-05T03:13:10.214Z,1.30
2019-03-05T03:15:38.971Z,1.25
2019-03-05T03:18:07.789Z,1.40
2019-03-05T03:20:36.695Z,1.27
2019-03-05T03:23:05.394Z,1.32
2019-03-05T03:25:33.935Z,1.52
2019-03-05T03:28:02.619Z,1.37
2019-03-05T03:30:31.303Z,1.32
2019-03-05T03:33:00.222Z,1.25
2019-03-05T03:35:28.786Z,1.72
2019-03-05T03:37:57.466Z,1.42
2019-03-05T03:40:26.276Z,1.40
2019-03-05T03:42:54.950Z,1.50
2019-03-05T03:45:23.648Z,1.40
2019-03-05T03:47:52.201Z,1.32
2019-03-05T03:50:20.873Z,1.10
2019-03-05T03:52:49.916Z,1.00
2019-03-05T03:55:18.605Z,1.32
2019-03-05T03:57:47.277Z,1.32
2019-03-05T04:00:21.001Z,1.35
2019-03-05T04:02:50.283Z,1.20
2019-03-05T04:05:19.201Z,0.93
2019-03-05T04:07:48.135Z,1.32
2019-03-05T04:10:16.934Z,1.32
2019-03-05T04:12:45.846Z,1.17
2019-03-05T04:15:17.291Z,1.30
2019-03-05T04:17:46.093Z,1.25
2019-03-05T04:20:17.543Z,1.10
2019-03-05T04:22:46.459Z,2.10
2019-03-05T04:25:15.018Z,1.00
2019-03-05T04:27:43.816Z,1.07
2019-03-05T04:30:14.063Z,1.22
2019-03-05T04:32:42.862Z,1.05
2019-03-05T04:35:12.622Z,1.15
2019-03-05T04:37:41.306Z,1.00
2019-03-05T04:40:11.544Z,1.25
2019-03-05T04:42:40.358Z,1.12
2019-03-05T04:45:30.748Z,1.10
2019-03-05T04:47:59.187Z,1.47
2019-03-05T04:50:29.481Z,1.10
2019-03-05T04:52:58.114Z,0.88
2019-03-05T04:55:26.798Z,1.17
2019-03-05T04:57:55.595Z,1.30
2019-03-05T05:00:24.642Z,1.15
2019-03-05T05:02:53.439Z,1.02
2019-03-05T05:05:22.242Z,1.37
2019-03-05T05:07:51.050Z,1.15
2019-03-05T05:10:19.727Z,0.90
2019-03-05T05:12:48.529Z,0.82
2019-03-05T05:15:23.330Z,0.90
2019-03-05T05:17:52.249Z,1.10
2019-03-05T05:20:20.939Z,1.40
2019-03-05T05:22:49.611Z,1.10
2019-03-05T05:25:19.252Z,1.20
2019-03-05T05:27:48.056Z,1.40
2019-03-05T05:30:39.058Z,0.88
2019-03-05T05:33:08.583Z,1.23
2019-03-05T05:35:37.503Z,0.93
2019-03-05T05:38:06.301Z,1.00
2019-03-05T05:40:40.264Z,1.05
2019-03-05T05:43:11.706Z,1.00
2019-03-05T05:45:49.867Z,1.32
2019-03-05T05:48:20.480Z,1.10
2019-03-05T05:50:49.274Z,1.20
2019-03-05T05:53:18.072Z,1.10
2019-03-05T05:55:46.879Z,1.57
2019-03-05T05:58:15.321Z,1.57
2019-03-05T06:00:45.557Z,0.90
2019-03-05T06:03:14.366Z,1.10
2019-03-05T06:05:42.802Z,1.40
2019-03-05T06:08:11.640Z,1.15
2019-03-05T06:10:40.529Z,1.17
2019-03-05T06:13:09.084Z,1.35
2019-03-05T06:15:37.893Z,0.95
2019-03-05T06:18:06.687Z,1.37
2019-03-05T06:20:35.489Z,1.52
2019-03-05T06:23:04.171Z,1.47
2019-03-05T06:25:33.093Z,1.15
2019-03-05T06:28:01.773Z,1.62
2019-03-05T06:30:36.106Z,1.17
2019-03-05T06:33:05.139Z,1.22
2019-03-05T06:35:34.194Z,1.10
2019-03-05T06:38:02.980Z,1.45
2019-03-05T06:40:32.502Z,1.20
2019-03-05T06:43:00.941Z,1.35
2019-03-05T06:45:29.873Z,1.27
2019-03-05T06:47:58.665Z,1.60
2019-03-05T06:50:28.545Z,1.22
2019-03-05T06:52:57.472Z,1.85
2019-03-05T06:55:25.922Z,1.65
2019-03-05T06:57:54.717Z,1.32
2019-03-05T07:00:35.165Z,1.22
2019-03-05T07:03:05.641Z,1.70
2019-03-05T07:06:09.601Z,1.10
2019-03-05T07:08:41.042Z,0.90
2019-03-05T07:11:21.720Z,1.60
2019-03-05T07:13:52.928Z,1.57
2019-03-05T07:16:30.847Z,1.55
2019-03-05T07:19:00.847Z,2.00
2019-03-05T07:21:50.417Z,1.72
2019-03-05T07:24:41.410Z,1.90
2019-03-05T07:27:09.858Z,1.40
2019-03-05T07:29:39.617Z,1.67
2019-03-05T07:32:08.422Z,1.55
2019-03-05T07:34:39.017Z,1.52
2019-03-05T07:37:09.018Z,1.67
2019-03-05T07:39:37.939Z,1.20
2019-03-05T07:42:06.629Z,1.40
2019-03-05T07:44:35.423Z,1.20
2019-03-05T07:47:04.105Z,1.85
2019-03-05T07:49:43.296Z,1.55
2019-03-05T07:52:03.159Z,1.67
2019-03-05T07:54:32.247Z,1.40
2019-03-05T07:57:00.993Z,1.50
2019-03-05T07:59:29.916Z,1.57
2019-03-05T08:01:58.831Z,1.62
2019-03-05T08:04:27.633Z,2.12
2019-03-05T08:06:56.196Z,1.47
2019-03-05T08:09:36.766Z,1.82
2019-03-05T08:12:26.802Z,1.40
2019-03-05T08:15:02.201Z,1.60
2019-03-05T08:17:31.007Z,1.35
2019-03-05T08:19:59.688Z,1.40
2019-03-05T08:22:28.367Z,1.15
2019-03-05T08:24:58.249Z,1.37
2019-03-05T08:27:26.689Z,1.30
2019-03-05T08:29:55.136Z,1.85
2019-03-05T08:32:24.539Z,1.25
2019-03-05T08:34:53.098Z,1.40
2019-03-05T08:37:21.779Z,1.50
2019-03-05T08:39:50.336Z,1.30
2019-03-05T08:42:19.019Z,1.50
2019-03-05T08:44:50.674Z,1.67
2019-03-05T08:47:18.067Z,1.25
2019-03-05T08:49:46.521Z,1.52
2019-03-05T08:52:14.962Z,1.75
2019-03-05T08:54:45.385Z,1.67
2019-03-05T08:57:13.870Z,1.50
2019-03-05T08:59:42.430Z,1.45
2019-03-05T09:02:11.113Z,1.72
2019-03-05T09:04:39.791Z,1.20
2019-03-05T09:07:08.234Z,1.37
2019-03-05T09:09:36.681Z,2.10
2019-03-05T09:12:05.236Z,1.92
2019-03-05T09:14:34.557Z,1.67
2019-03-05T09:17:04.294Z,1.30
2019-03-05T09:19:32.725Z,1.55
2019-03-05T09:22:01.413Z,1.72
2019-03-05T09:24:29.856Z,1.85
2019-03-05T09:26:58.529Z,1.40
2019-03-05T09:29:27.208Z,1.50
2019-03-05T09:31:55.651Z,1.40
2019-03-05T09:34:25.172Z,1.65
2019-03-05T09:36:53.616Z,1.50
2019-03-05T09:39:22.057Z,1.40
2019-03-05T09:41:50.500Z,1.40
2019-03-05T09:44:18.938Z,1.30
2019-03-05T09:46:47.382Z,2.00
2019-03-05T09:49:15.946Z,1.57
2019-03-05T09:51:44.393Z,1.70
2019-03-05T09:54:12.944Z,1.60
2019-03-05T09:56:41.755Z,1.17
2019-03-05T09:59:10.186Z,1.50
2019-03-05T10:01:38.875Z,1.47
2019-03-05T10:04:07.552Z,1.20
2019-03-05T10:06:36.238Z,1.87
2019-03-05T10:09:06.354Z,1.10
2019-03-05T10:11:34.916Z,1.05
2019-03-05T10:14:03.597Z,1.60
2019-03-05T10:16:32.162Z,1.45
2019-03-05T10:19:00.841Z,0.90
2019-03-05T10:21:29.406Z,1.50
2019-03-05T10:23:58.088Z,2.70
2019-03-05T10:26:26.530Z,1.60
2019-03-05T10:28:55.328Z,2.00
2019-03-05T10:31:24.130Z,2.02
2019-03-05T10:33:52.568Z,1.05
2019-03-05T10:36:21.252Z,1.17
2019-03-05T10:38:57.153Z,1.10
2019-03-05T10:41:20.293Z,0.70
2019-03-05T10:43:48.983Z,0.90
2019-03-05T10:46:17.662Z,1.20
2019-03-05T10:48:46.103Z,1.05
2019-03-05T10:51:14.783Z,0.82
2019-03-05T10:53:43.221Z,1.02
2019-03-05T10:56:11.913Z,0.60
2019-03-05T10:58:40.348Z,0.53
2019-03-05T11:01:10.710Z,1.32
2019-03-05T11:03:39.153Z,0.50
2019-03-05T11:06:08.220Z,0.80
2019-03-05T11:08:36.633Z,0.50
2019-03-05T11:11:12.936Z,0.60
2019-03-05T11:13:35.317Z,1.42
2019-03-05T11:16:05.440Z,0.65
2019-03-05T11:18:34.120Z,0.85
2019-03-05T11:21:02.880Z,0.90
2019-03-05T11:23:31.482Z,0.75
2019-03-05T11:26:00.043Z,0.60
2019-03-05T11:28:28.609Z,0.70
2019-03-05T11:30:57.288Z,0.70
2019-03-05T11:33:25.846Z,0.90
2019-03-05T11:35:54.294Z,0.60
2019-03-05T11:38:23.100Z,0.85
2019-03-05T11:40:51.891Z,0.90
2019-03-05T11:43:20.334Z,1.67
2019-03-05T11:45:48.900Z,1.80
2019-03-05T11:48:17.337Z,1.67
2019-03-05T11:50:45.787Z,1.70
2019-03-05T11:53:14.220Z,1.10
2019-03-05T11:55:42.786Z,1.27
2019-03-05T11:58:11.232Z,1.10
2019-03-05T12:00:56.707Z,1.30
2019-03-05T12:03:25.148Z,6.03
2019-03-05T12:05:53.830Z,0.60
2019-03-05T12:08:22.270Z,0.80
2019-03-05T12:10:50.718Z,0.80
2019-03-05T12:13:19.158Z,0.53
2019-03-05T12:15:47.716Z,0.40
2019-03-05T12:18:16.156Z,0.70
2019-03-05T12:20:44.840Z,0.50
2019-03-05T12:23:13.406Z,0.30
2019-03-05T12:25:41.963Z,0.40
2019-03-05T12:28:11.415Z,0.88
2019-03-05T12:30:40.180Z,0.55
2019-03-05T12:33:08.648Z,0.45
2019-03-05T12:35:37.052Z,0.30
2019-03-05T12:38:05.739Z,0.40
2019-03-05T12:40:34.416Z,0.35
2019-03-05T12:43:02.980Z,0.40
2019-03-05T12:45:31.785Z,0.40
2019-03-05T12:48:00.456Z,0.78
2019-03-05T12:50:30.939Z,0.40
2019-03-05T12:52:59.379Z,0.30
2019-03-05T12:55:28.061Z,0.40
2019-03-05T12:57:56.624Z,0.30
2019-03-05T13:00:29.025Z,0.40
2019-03-05T13:02:57.585Z,0.40
2019-03-05T13:05:26.032Z,0.30
2019-03-05T13:07:56.485Z,0.55
2019-03-05T13:10:35.238Z,0.45
2019-03-05T13:13:00.114Z,0.40
2019-03-05T13:15:31.435Z,0.40
2019-03-05T13:17:59.875Z,0.45
2019-03-05T13:20:28.317Z,0.40
2019-03-05T13:22:56.759Z,0.42
2019-03-05T13:25:28.400Z,0.35
2019-03-05T13:27:57.671Z,0.28
2019-03-05T13:30:29.520Z,0.40
2019-03-05T13:32:58.953Z,0.30
2019-03-05T13:35:30.355Z,0.40
2019-03-05T13:38:09.318Z,0.30
2019-03-05T13:40:38.633Z,0.30
2019-03-05T13:43:07.355Z,0.25
2019-03-05T13:45:36.013Z,0.40
2019-03-05T13:48:24.255Z,0.30
2019-03-05T13:51:11.178Z,0.40
2019-03-05T13:54:01.431Z,0.30
2019-03-05T13:56:42.228Z,0.30
2019-03-05T13:59:31.460Z,0.50
2019-03-05T14:02:00.024Z,0.50
2019-03-05T14:04:57.150Z,0.30
2019-03-05T14:07:54.646Z,0.50
2019-03-05T14:10:26.002Z,0.20
2019-03-05T14:12:53.792Z,0.50
2019-03-05T14:15:22.236Z,0.30
2019-03-05T14:17:50.934Z,0.50
2019-03-05T14:20:19.604Z,0.33
2019-03-05T14:22:48.044Z,0.50
2019-03-05T14:25:16.721Z,0.45
2019-03-05T14:27:45.182Z,0.65
2019-03-05T14:30:20.972Z,0.50
2019-03-05T14:32:49.963Z,0.50
2019-03-05T14:35:19.512Z,0.40
2019-03-05T14:37:48.200Z,0.60
2019-03-05T14:40:25.500Z,0.50
2019-03-05T14:42:54.189Z,0.45
2019-03-05T14:45:25.256Z,0.60
2019-03-05T14:47:54.791Z,0.70
2019-03-05T14:50:23.221Z,0.50
2019-03-05T14:52:51.666Z,0.70
2019-03-05T14:55:20.238Z,0.65
2019-03-05T14:57:48.903Z,0.60
2019-03-05T15:00:19.662Z,0.80
2019-03-05T15:02:48.349Z,0.50
2019-03-05T15:05:17.000Z,0.53
2019-03-05T15:07:45.673Z,0.60
2019-03-05T15:10:14.112Z,0.70
2019-03-05T15:12:42.706Z,0.50
2019-03-05T15:15:14.518Z,0.60
2019-03-05T15:17:42.956Z,0.80
2019-03-05T15:20:11.711Z,0.53
2019-03-05T15:22:40.223Z,0.40
2019-03-05T15:25:14.255Z,0.53
2019-03-05T15:27:42.876Z,0.50
2019-03-05T15:30:22.640Z,0.55
2019-03-05T15:32:51.081Z,0.75
2019-03-05T15:35:19.825Z,0.42
2019-03-05T15:37:48.615Z,0.60
2019-03-05T15:40:27.263Z,0.72
2019-03-05T15:42:56.034Z,0.40
2019-03-05T15:45:24.695Z,0.70
2019-03-05T15:47:53.890Z,0.85
2019-03-05T15:50:27.933Z,0.50
2019-03-05T15:52:56.866Z,0.70
2019-03-05T15:55:26.137Z,0.42
2019-03-05T15:57:55.176Z,0.82
2019-03-05T16:00:30.100Z,0.78
2019-03-05T16:02:59.383Z,0.88
2019-03-05T16:05:28.900Z,0.40
2019-03-05T16:07:59.855Z,0.80
2019-03-05T16:10:28.305Z,0.70
2019-03-05T16:12:57.107Z,0.70
2019-03-05T16:15:26.050Z,0.80
2019-03-05T16:17:54.959Z,0.93
2019-03-05T16:20:25.865Z,0.45
2019-03-05T16:22:55.068Z,0.60
2019-03-05T16:25:24.717Z,0.70
2019-03-05T16:27:53.766Z,0.65
2019-03-05T16:30:46.440Z,0.60
2019-03-05T16:33:36.908Z,0.85
2019-03-05T16:36:25.391Z,1.00
2019-03-05T16:38:56.643Z,1.15
2019-03-05T16:41:43.329Z,0.70
2019-03-05T16:44:32.289Z,0.80
2019-03-05T16:47:02.648Z,0.72
2019-03-05T16:49:45.489Z,0.82
2019-03-05T16:52:31.104Z,0.68
2019-03-05T16:55:10.334Z,0.90
2019-03-05T16:57:40.838Z,0.50
2019-03-05T17:00:30.739Z,0.82
2019-03-05T17:03:10.102Z,0.78
2019-03-05T17:05:40.340Z,0.70
2019-03-05T17:08:16.704Z,0.65
2019-03-05T17:10:47.189Z,0.93
2019-03-05T17:13:15.744Z,0.80
2019-03-05T17:15:44.437Z,1.77
2019-03-05T17:18:13.231Z,5.65
2019-03-05T17:20:41.680Z,9.83
2019-03-05T17:23:11.312Z,1.45
2019-03-05T17:25:39.872Z,1.37
2019-03-05T17:28:08.796Z,5.47
2019-03-05T17:30:37.596Z,5.70
2019-03-05T17:33:06.399Z,1.52
2019-03-05T17:35:35.459Z,1.60
2019-03-05T17:38:04.481Z,3.90
2019-03-05T17:40:33.167Z,1.60
2019-03-05T17:43:02.085Z,1.65
2019-03-05T17:45:31.131Z,1.90
2019-03-05T17:47:59.931Z,1.87
2019-03-05T17:50:29.938Z,2.60
2019-03-05T17:52:58.734Z,2.45
2019-03-05T17:55:28.495Z,2.47
2019-03-05T17:57:58.618Z,2.00
2019-03-05T18:00:31.506Z,2.20
2019-03-05T18:03:00.422Z,1.92
2019-03-05T18:05:29.218Z,2.02
2019-03-05T18:07:58.025Z,1.90
2019-03-05T18:10:26.702Z,1.70
2019-03-05T18:12:55.268Z,2.12
2019-03-05T18:15:23.826Z,2.27
2019-03-05T18:17:52.268Z,2.27
2019-03-05T18:20:21.917Z,1.77
2019-03-05T18:22:50.963Z,2.30
2019-03-05T18:25:19.635Z,2.50
2019-03-05T18:27:49.044Z,2.22
2019-03-05T18:30:26.718Z,2.75
2019-03-05T18:32:55.876Z,2.20
2019-03-05T18:35:24.324Z,3.22
2019-03-05T18:37:53.240Z,1.72
2019-03-05T18:40:23.250Z,2.08
2019-03-05T18:42:52.054Z,3.10
2019-03-05T18:45:28.892Z,1.90
2019-03-05T18:47:57.683Z,2.37
2019-03-05T18:50:26.853Z,1.95
2019-03-05T18:52:58.409Z,1.67
2019-03-05T18:57:55.531Z,2.10
2019-03-05T19:00:28.772Z,2.08
2019-03-05T19:03:08.980Z,2.00
2019-03-05T19:05:38.618Z,2.20
2019-03-05T19:08:07.299Z,1.40
2019-03-05T19:10:36.221Z,2.05
2019-03-05T19:13:05.382Z,2.25
2019-03-05T19:15:34.304Z,1.80
2019-03-05T19:18:03.347Z,2.17
2019-03-05T19:20:32.512Z,3.37
2019-03-05T19:23:01.313Z,2.20
2019-03-05T19:25:31.310Z,2.60
2019-03-05T19:28:00.111Z,2.37
2019-03-05T19:30:37.200Z,2.67
2019-03-05T19:33:06.002Z,2.47
2019-03-05T19:35:35.037Z,2.55
2019-03-05T19:38:04.679Z,2.75
2019-03-05T19:40:38.279Z,2.62
2019-03-05T19:43:07.203Z,3.35
2019-03-05T19:45:36.413Z,3.02
2019-03-05T19:48:05.763Z,3.35
2019-03-05T19:50:34.695Z,3.45
2019-03-05T19:53:03.367Z,3.30
2019-03-05T19:55:32.418Z,3.20
2019-03-05T19:58:10.701Z,3.17
2019-03-05T20:00:46.453Z,3.67
2019-03-05T20:03:17.062Z,3.45
2019-03-05T20:05:45.501Z,3.60
2019-03-05T20:08:14.298Z,3.77
2019-03-05T20:10:42.979Z,4.08
2019-03-05T20:13:11.541Z,9.93
2019-03-05T20:15:40.705Z,5.17
2019-03-05T20:18:09.387Z,5.12
2019-03-05T20:20:38.307Z,5.50
2019-03-05T20:23:07.230Z,5.30
2019-03-05T20:25:35.909Z,5.55
2019-03-05T20:28:04.709Z,4.87
2019-03-05T20:30:33.753Z,4.87
2019-03-05T20:33:02.566Z,6.10
2019-03-05T20:35:31.236Z,5.92
2019-03-05T20:38:00.038Z,6.83
2019-03-05T20:40:32.686Z,5.90
2019-03-05T20:43:02.926Z,6.85
2019-03-05T20:45:34.842Z,8.33
2019-03-05T20:48:03.528Z,9.30
2019-03-05T20:50:34.004Z,9.20
2019-03-05T20:53:02.459Z,7.60
2019-03-05T20:55:31.249Z,7.80
2019-03-05T20:57:59.932Z,8.25
2019-03-05T21:00:31.856Z,8.65
2019-03-05T21:03:02.577Z,8.58
2019-03-05T21:05:36.658Z,9.25
2019-03-05T21:08:05.698Z,7.58
2019-03-05T21:10:34.496Z,7.40
2019-03-05T21:13:03.182Z,7.20
2019-03-05T21:15:33.183Z,6.15
2019-03-05T21:18:02.479Z,8.08
2019-03-05T21:20:31.388Z,9.03
2019-03-05T21:26:41.713Z,8.73
2019-03-05T21:29:10.630Z,9.63
2019-03-05T21:31:39.315Z,9.13
2019-03-05T21:34:08.114Z,8.63
2019-03-05T21:36:36.814Z,9.10
2019-03-05T21:39:07.515Z,8.78
2019-03-05T21:41:36.436Z,8.20
2019-03-05T21:44:05.121Z,9.95
2019-03-05T21:46:33.804Z,8.88
2019-03-05T21:49:02.482Z,8.35
2019-03-05T21:51:31.414Z,7.90
2019-03-05T21:54:00.327Z,8.33
2019-03-05T21:56:29.369Z,10.35
2019-03-05T21:58:58.168Z,9.40
2019-03-05T22:01:26.970Z,10.13
2019-03-05T22:03:56.183Z,11.28
2019-03-05T22:06:25.055Z,10.35
2019-03-05T22:08:53.978Z,13.13
2019-03-05T22:11:22.903Z,10.93
2019-03-05T22:13:51.588Z,10.43
2019-03-05T22:16:20.504Z,11.15
2019-03-05T22:18:49.306Z,9.75
2019-03-05T22:21:18.109Z,10.75
2019-03-05T22:23:47.157Z,9.98
2019-03-05T22:26:16.072Z,11.65
2019-03-05T22:28:45.107Z,12.00
2019-03-05T22:31:13.795Z,13.35
2019-03-05T22:33:42.868Z,13.45
2019-03-05T22:36:11.640Z,14.68
2019-03-05T22:38:40.555Z,14.07
2019-03-05T22:41:09.597Z,14.00
2019-03-05T22:43:38.529Z,14.53
2019-03-05T22:46:07.440Z,13.30
2019-03-05T22:48:36.122Z,15.00
2019-03-05T22:51:04.924Z,16.73
2019-03-05T22:53:33.608Z,15.65
2019-03-05T22:56:02.403Z,17.80
2019-03-05T22:58:31.573Z,12.95
2019-03-05T23:01:06.966Z,13.80
2019-03-05T23:03:36.016Z,15.10
2019-03-05T23:06:10.576Z,13.98
2019-03-05T23:08:39.373Z,12.63
2019-03-05T23:11:08.414Z,13.22
2019-03-05T23:13:37.214Z,12.95
2019-03-05T23:16:05.781Z,12.73
2019-03-05T23:18:34.821Z,11.55
2019-03-05T23:21:03.985Z,12.25
2019-03-05T23:23:32.783Z,12.88
2019-03-05T23:26:01.466Z,11.80
2019-03-05T23:28:30.386Z,16.52
2019-03-05T23:30:59.192Z,16.30
2019-03-05T23:33:28.109Z,18.57
2019-03-05T23:35:57.275Z,18.35
2019-03-05T23:38:25.953Z,17.60
2019-03-05T23:40:54.755Z,16.02
2019-03-05T23:43:23.675Z,14.80
2019-03-05T23:45:52.355Z,14.55
2019-03-05T23:48:21.041Z,17.37
2019-03-05T23:50:49.968Z,16.27
2019-03-05T23:53:18.642Z,14.33
2019-03-05T23:55:47.331Z,14.15
2019-03-05T23:58:16.127Z,14.65
